Time;durP1;ratioP1;P1;durP2;ratioP2;P2;SDS_P1;SDS_P2;PMS_P1;PMS_P2;Temp;Humidity;BMP_temperature;BMP_pressure;BME280_temperature;BME280_humidity;BME280_pressure;Samples;Min_cycle;Max_cycle;Signal;HPM_P1;HPM_P2
2023/07/29 00:00:24;;;;;;;;;;;;;;;26.77;51.74;98233.02;67688;1280;1016358;-61
2023/07/29 00:03:47;;;;;;;16.30;4.60;;;;;;;26.82;51.64;98232.97;67719;1280;1016787;-61
2023/07/29 00:06:49;;;;;;;;;;;;;;;26.98;51.14;98227.52;67675;1280;1019540;-62
2023/07/29 00:09:52;;;;;;;15.70;5.00;;;;;;;27.09;50.90;98228.25;67671;1281;1016468;-59
2023/07/29 00:12:54;;;;;;;16.00;5.10;;;;;;;26.99;51.25;98231.48;67653;1280;1016344;-59
2023/07/29 00:15:57;;;;;;;;;;;;;;;26.94;50.99;98232.75;67704;1280;1017170;-59
2023/07/29 00:18:59;;;;;;;16.20;5.70;;;;;;;26.69;51.07;98234.94;67685;1281;1016307;-58
2023/07/29 00:22:01;;;;;;;;;;;;;;;26.63;51.14;98229.95;67714;1281;1016445;-59
2023/07/29 00:25:04;;;;;;;17.90;5.80;;;;;;;26.57;51.24;98229.17;67712;1280;1016420;-59
2023/07/29 00:28:06;;;;;;;;;;;;;;;26.51;51.31;98232.66;67672;1280;1016410;-59
2023/07/29 00:31:08;;;;;;;19.90;6.60;;;;;;;26.46;51.16;98235.27;67686;1281;1016504;-59
2023/07/29 00:34:11;;;;;;;;;;;;;;;26.64;50.61;98235.31;67664;1281;1020155;-60
2023/07/29 00:37:13;;;;;;;18.20;6.30;;;;;;;26.56;50.99;98237.20;67684;1280;1016830;-60
2023/07/29 00:40:16;;;;;;;17.00;5.60;;;;;;;26.52;51.18;98243.81;67724;1281;1016344;-59
2023/07/29 00:43:19;;;;;;;16.80;5.30;;;;;;;26.57;51.01;98236.55;67664;1281;1016166;-59
2023/07/29 00:46:21;;;;;;;;;;;;;;;26.33;51.71;98238.02;67655;1281;1016430;-59
2023/07/29 00:49:23;;;;;;;17.60;6.30;;;;;;;26.44;51.41;98232.92;67696;1281;1016390;-59
2023/07/29 00:52:26;;;;;;;;;;;;;;;26.48;51.37;98233.86;67716;1280;1016553;-59
2023/07/29 00:55:28;;;;;;;19.50;6.60;;;;;;;26.50;51.36;98227.66;67680;1280;1016515;-58
2023/07/29 00:58:30;;;;;;;;;;;;;;;26.55;51.46;98231.98;67630;1280;1016469;-61
2023/07/29 01:01:33;;;;;;;24.90;7.50;;;;;;;26.58;51.47;98232.44;67635;1281;1017950;-61
2023/07/29 01:04:35;;;;;;;18.60;6.70;;;;;;;26.50;51.23;98230.88;67668;1280;1016477;-62
2023/07/29 01:07:38;;;;;;;;;;;;;;;26.42;51.07;98235.33;67717;1280;1016418;-61
2023/07/29 01:10:40;;;;;;;18.70;5.70;;;;;;;26.42;50.57;98233.50;67677;1281;1016209;-61
2023/07/29 01:13:42;;;;;;;17.20;5.50;;;;;;;26.31;50.84;98236.09;67664;1280;1016475;-62
2023/07/29 01:16:45;;;;;;;15.60;5.20;;;;;;;26.12;51.43;98237.55;67634;1280;1016375;-61
2023/07/29 01:19:47;;;;;;;15.00;5.00;;;;;;;26.17;51.52;98236.73;67654;1281;1016426;-61
2023/07/29 01:22:49;;;;;;;15.50;4.70;;;;;;;25.98;51.88;98243.05;67657;1281;1016478;-61
2023/07/29 01:25:52;;;;;;;;;;;;;;;25.86;52.20;98243.05;67707;1280;1016489;-62
2023/07/29 01:28:54;;;;;;;15.90;5.70;;;;;;;25.89;51.93;98239.24;67720;1280;1016207;-61
2023/07/29 01:31:57;;;;;;;;;;;;;;;25.68;52.78;98248.08;67673;1280;1016182;-61
2023/07/29 01:34:59;;;;;;;22.80;6.50;;;;;;;25.66;53.22;98255.84;67616;1280;1016439;-58
2023/07/29 01:38:01;;;;;;;22.00;6.20;;;;;;;25.56;53.53;98252.98;67656;1280;1016414;-59
2023/07/29 01:41:04;;;;;;;22.60;7.50;;;;;;;25.78;52.98;98248.04;67691;1281;1016288;-58
2023/07/29 01:44:06;;;;;;;;;;;;;;;26.06;52.45;98249.68;67710;1280;1016647;-59
2023/07/29 01:47:08;;;;;;;22.80;5.20;;;;;;;26.13;52.34;98254.63;67680;1280;1019802;-59
2023/07/29 01:50:11;;;;;;;;;;;;;;;25.72;53.23;98255.77;67644;1280;1016292;-58
2023/07/29 01:53:13;;;;;;;19.40;5.30;;;;;;;25.71;52.77;98259.69;67628;1280;1016302;-58
2023/07/29 01:56:15;;;;;;;;;;;;;;;25.45;52.34;98259.73;67680;1280;1016405;-60
2023/07/29 01:59:18;;;;;;;15.10;4.30;;;;;;;25.23;52.28;98262.59;67717;1281;1016650;-59
2023/07/29 02:02:20;;;;;;;;;;;;;;;24.93;52.72;98259.90;67697;1280;1016415;-58
2023/07/29 02:05:23;;;;;;;16.90;4.70;;;;;;;24.90;52.79;98257.53;67705;1280;1016476;-58
2023/07/29 02:08:25;;;;;;;;;;;;;;;25.07;52.63;98248.80;67675;1280;1016113;-58
2023/07/29 02:11:28;;;;;;;15.30;4.90;;;;;;;25.14;52.85;98247.27;67622;1280;1016187;-58
2023/07/29 02:14:30;;;;;;;15.30;4.70;;;;;;;25.23;52.34;98258.14;67683;1280;1016385;-58
2023/07/29 02:17:32;;;;;;;;;;;;;;;25.02;52.92;98264.08;67723;1280;1016072;-59
2023/07/29 02:20:35;;;;;;;14.40;4.30;;;;;;;24.82;53.66;98271.83;67749;1280;1019250;-60
2023/07/29 02:23:37;;;;;;;22.30;4.40;;;;;;;24.84;53.05;98272.16;67690;1280;1016359;-61
2023/07/29 02:26:39;;;;;;;25.20;4.40;;;;;;;24.83;52.30;98272.11;67645;1280;1016610;-61
2023/07/29 02:29:42;;;;;;;;;;;;;;;24.83;52.17;98272.08;67648;1280;1019897;-61
2023/07/29 02:32:44;;;;;;;19.30;4.50;;;;;;;24.89;52.16;98275.52;67703;1280;1016697;-61
2023/07/29 02:35:47;;;;;;;18.20;5.60;;;;;;;24.97;52.05;98275.07;67690;1280;1016393;-61
2023/07/29 02:38:49;;;;;;;22.70;6.20;;;;;;;25.02;52.12;98278.98;67690;1280;1016301;-61
2023/07/29 02:41:51;;;;;;;;;;;;;;;24.99;52.47;98282.21;67675;1280;1016493;-61
2023/07/29 02:44:54;;;;;;;15.20;4.90;;;;;;;24.93;52.69;98281.31;67670;1280;1017046;-61
2023/07/29 02:47:56;;;;;;;14.80;4.20;;;;;;;24.82;52.56;98284.11;67685;1280;1018934;-61
2023/07/29 02:50:58;;;;;;;13.40;4.40;;;;;;;24.83;52.58;98284.70;67698;1280;1016443;-60
2023/07/29 02:54:01;;;;;;;15.60;4.20;;;;;;;24.78;52.73;98289.33;67709;1280;1016499;-60
2023/07/29 02:57:04;;;;;;;;;;;;;;;24.71;52.92;98287.57;67706;1280;1016312;-61
2023/07/29 03:00:07;;;;;;;;;;;;;;;24.71;52.97;98287.52;67650;1280;1016319;-59
2023/07/29 03:03:09;;;;;;;16.30;3.80;;;;;;;24.62;53.29;98283.51;67709;1280;1016441;-59
2023/07/29 03:06:12;;;;;;;;;;;;;;;24.52;53.51;98296.20;67675;1280;1018930;-58
2023/07/29 03:09:14;;;;;;;13.40;3.80;;;;;;;24.32;54.33;98306.79;67671;1280;1016266;-58
2023/07/29 03:12:16;;;;;;;17.20;4.30;;;;;;;24.07;53.98;98304.77;67656;1280;1016265;-61
2023/07/29 03:15:20;;;;;;;;;;;;;;;24.03;53.83;98315.28;67745;1280;1016285;-58
2023/07/29 03:18:23;;;;;;;15.50;4.40;;;;;;;23.97;54.04;98319.20;67667;1280;1016435;-59
2023/07/29 03:21:25;;;;;;;12.50;4.10;;;;;;;23.95;54.42;98318.52;67715;1280;1016557;-58
2023/07/29 03:24:28;;;;;;;19.80;5.00;;;;;;;24.20;54.40;98311.14;67677;1280;1016485;-59
2023/07/29 03:27:31;;;;;;;16.50;5.20;;;;;;;24.30;54.79;98307.18;67746;1280;1016289;-59
2023/07/29 03:30:33;;;;;;;16.30;5.10;;;;;;;24.51;54.68;98307.04;67695;1280;1016357;-58
2023/07/29 03:33:36;;;;;;;;;;;;;;;24.70;54.27;98305.66;67671;1280;1017340;-58
2023/07/29 03:36:38;;;;;;;15.80;5.00;;;;;;;24.78;54.37;98313.18;67661;1280;1016372;-58
2023/07/29 03:39:40;;;;;;;18.00;5.10;;;;;;;24.89;54.39;98316.67;67687;1280;1017660;-60
2023/07/29 03:42:43;;;;;;;13.90;4.70;;;;;;;25.02;53.89;98315.52;67724;1280;1016274;-59
2023/07/29 03:45:45;;;;;;;;;;;;;;;25.23;53.69;98320.13;67701;1280;1016420;-57
2023/07/29 03:48:47;;;;;;;15.20;4.40;;;;;;;25.35;53.26;98315.95;67682;1280;1016383;-58
2023/07/29 03:51:50;;;;;;;;;;;;;;;25.31;53.23;98315.99;67686;1280;1016490;-60
2023/07/29 03:54:52;;;;;;;17.00;4.60;;;;;;;25.50;52.64;98313.55;67682;1280;1016559;-58
2023/07/29 03:57:55;;;;;;;16.30;4.80;;;;;;;25.63;52.50;98310.90;67735;1280;1016360;-61
2023/07/29 04:00:57;;;;;;;;;;;;;;;25.72;52.40;98311.08;67720;1280;1015978;-61
2023/07/29 04:03:59;;;;;;;17.90;5.20;;;;;;;25.62;52.85;98318.05;67683;1281;1018931;-61
2023/07/29 04:07:02;;;;;;;;;;;;;;;25.82;52.53;98313.98;67674;1280;1016033;-61
2023/07/29 04:10:04;;;;;;;18.30;4.90;;;;;;;25.98;52.73;98313.11;67646;1281;1016237;-61
2023/07/29 04:13:07;;;;;;;18.30;5.50;;;;;;;26.32;52.52;98312.31;67662;1258;1016404;-61
2023/07/29 04:16:09;;;;;;;;;;;;;;;26.64;52.43;98315.00;67725;1280;1016808;-61
2023/07/29 04:19:11;;;;;;;18.50;5.80;;;;;;;26.90;52.42;98315.38;67700;1280;1016145;-62
2023/07/29 04:22:14;;;;;;;;;;;;;;;27.21;52.20;98319.32;67667;1280;1016465;-61
2023/07/29 04:25:16;;;;;;;19.00;6.20;;;;;;;27.42;52.04;98322.81;67655;1280;1016416;-61
2023/07/29 04:28:19;;;;;;;;;;;;;;;27.94;51.15;98319.88;67685;1280;1016887;-59
2023/07/29 04:31:21;;;;;;;22.00;6.90;;;;;;;28.11;51.03;98323.33;67730;1280;1016202;-59
2023/07/29 04:34:23;;;;;;;;;;;;;;;28.23;50.90;98318.34;67683;1280;1016457;-59
2023/07/29 04:37:26;;;;;;;19.40;6.40;;;;;;;28.52;50.50;98320.36;67702;1280;1017961;-59
2023/07/29 04:40:28;;;;;;;;;;;;;;;28.48;50.90;98325.73;67690;1280;1017565;-61
2023/07/29 04:43:31;;;;;;;15.70;4.90;;;;;;;28.59;50.88;98326.41;67673;1280;1016414;-59
2023/07/29 04:46:33;;;;;;;;;;;;;;;28.76;50.59;98324.34;67637;1280;1016463;-59
2023/07/29 04:49:35;;;;;;;16.00;4.90;;;;;;;28.76;50.56;98326.13;67723;1280;1015971;-60
2023/07/29 04:52:38;;;;;;;14.60;4.80;;;;;;;28.75;50.81;98325.89;67691;1280;1016420;-60
2023/07/29 04:55:40;;;;;;;17.60;5.10;;;;;;;28.98;50.62;98324.19;67735;1280;1016477;-59
2023/07/29 04:58:42;;;;;;;17.90;5.30;;;;;;;29.25;50.31;98330.50;67674;1280;1016363;-59
2023/07/29 05:01:45;;;;;;;16.70;5.00;;;;;;;29.41;50.08;98326.80;67671;1280;1017541;-60
2023/07/29 05:04:48;;;;;;;17.40;4.70;;;;;;;29.62;49.30;98329.02;67729;1280;1016324;-60
2023/07/29 05:07:50;;;;;;;20.70;4.80;;;;;;;29.62;49.39;98338.58;67695;1280;1018904;-59
2023/07/29 05:10:53;;;;;;;17.30;4.80;;;;;;;29.61;49.31;98346.70;67654;1280;1016910;-59
2023/07/29 05:13:55;;;;;;;15.90;4.40;;;;;;;29.54;49.28;98341.23;67646;1280;1016277;-60
2023/07/29 05:16:57;;;;;;;15.30;4.60;;;;;;;29.40;49.42;98351.34;67662;1280;1016893;-59
2023/07/29 05:20:00;;;;;;;16.80;4.50;;;;;;;29.29;49.72;98350.51;67730;1280;1016585;-59
2023/07/29 05:23:02;;;;;;;13.10;4.30;;;;;;;29.44;49.77;98353.48;67718;1280;1018646;-60
2023/07/29 05:26:05;;;;;;;16.50;4.40;;;;;;;29.48;49.85;98359.66;67669;1280;1015949;-60
2023/07/29 05:29:07;;;;;;;15.70;4.40;;;;;;;29.89;48.94;98361.04;67688;1280;1016202;-62
2023/07/29 05:32:09;;;;;;;13.80;4.30;;;;;;;29.98;48.03;98357.27;67706;1280;1016144;-61
2023/07/29 05:35:12;;;;;;;17.00;4.90;;;;;;;29.91;48.38;98357.25;67702;1280;1016332;-61
2023/07/29 05:38:14;;;;;;;16.10;4.80;;;;;;;30.08;48.70;98356.23;67703;1265;1016027;-62
2023/07/29 05:41:17;;;;;;;14.30;4.40;;;;;;;30.33;48.24;98358.22;67639;1280;1017511;-61
2023/07/29 05:44:19;;;;;;;14.90;4.70;;;;;;;30.50;46.95;98359.91;67643;1280;1016496;-61
2023/07/29 05:47:21;;;;;;;15.20;4.20;;;;;;;30.17;47.12;98365.75;67688;1280;1016329;-61
2023/07/29 05:50:24;;;;;;;15.20;4.50;;;;;;;29.95;47.72;98364.38;67697;1280;1015962;-61
2023/07/29 05:53:26;;;;;;;16.30;4.20;;;;;;;30.22;47.95;98367.16;67701;1280;1016425;-60
2023/07/29 05:56:29;;;;;;;14.10;3.80;;;;;;;30.40;47.79;98369.86;67694;1280;1016368;-60
2023/07/29 05:59:32;;;;;;;9.70;3.70;;;;;;;30.03;47.30;98374.45;67699;1280;1016357;-60
2023/07/29 06:02:34;;;;;;;13.30;3.90;;;;;;;30.29;47.45;98377.58;67702;1280;1018240;-60
2023/07/29 06:05:37;;;;;;;13.20;3.60;;;;;;;30.40;47.22;98381.73;67703;1280;1016438;-60
2023/07/29 06:08:39;;;;;;;12.70;3.50;;;;;;;30.54;46.53;98387.62;67673;1280;1016245;-60
2023/07/29 06:11:41;;;;;;;11.60;3.60;;;;;;;30.29;47.27;98389.53;67660;1280;1016151;-60
2023/07/29 06:14:44;;;;;;;9.90;3.60;;;;;;;30.57;46.90;98387.42;67704;1280;1016046;-60
2023/07/29 06:17:46;;;;;;;11.30;3.50;;;;;;;30.69;46.66;98387.32;67715;1280;1016219;-61
2023/07/29 06:20:48;;;;;;;11.50;3.30;;;;;;;30.72;46.59;98384.64;67719;1280;1016521;-61
2023/07/29 06:23:51;;;;;;;12.30;3.60;;;;;;;30.61;46.01;98385.84;67699;1280;1016416;-60
2023/07/29 06:26:53;;;;;;;16.20;4.00;;;;;;;30.84;45.80;98380.85;67670;1280;1016510;-61
2023/07/29 06:29:56;;;;;;;12.50;3.50;;;;;;;31.17;45.33;98380.23;67658;1280;1016243;-61
2023/07/29 06:32:58;;;;;;;9.20;3.40;;;;;;;31.28;45.19;98378.79;67703;1280;1016403;-60
2023/07/29 06:36:01;;;;;;;12.50;3.60;;;;;;;31.25;45.60;98376.65;67694;1280;1016164;-60
2023/07/29 06:39:03;;;;;;;13.90;3.60;;;;;;;31.51;44.87;98379.23;67552;1280;1016323;-61
2023/07/29 06:42:05;;;;;;;9.50;3.30;;;;;;;31.58;44.71;98382.21;67677;1280;1016459;-60
2023/07/29 06:45:08;;;;;;;11.90;3.30;;;;;;;31.66;44.57;98383.19;67680;1280;1016155;-60
2023/07/29 06:48:10;;;;;;;10.70;3.40;;;;;;;31.40;45.11;98380.65;67711;1280;1016591;-61
2023/07/29 06:51:13;;;;;;;10.30;3.50;;;;;;;31.46;44.76;98386.14;67701;1280;1016417;-61
2023/07/29 06:54:15;;;;;;;10.80;3.70;;;;;;;31.73;44.17;98385.92;67722;1280;1016498;-61
2023/07/29 06:57:17;;;;;;;10.90;3.30;;;;;;;32.06;44.32;98385.40;67667;1280;1016462;-61
2023/07/29 07:00:20;;;;;;;7.90;2.80;;;;;;;32.06;43.10;98385.88;67646;1280;1016123;-61
2023/07/29 07:03:22;;;;;;;10.30;3.00;;;;;;;31.86;43.80;98386.98;67700;1280;1016542;-61
2023/07/29 07:06:25;;;;;;;8.60;3.10;;;;;;;31.93;42.82;98390.25;67712;1280;1016378;-61
2023/07/29 07:09:27;;;;;;;8.60;2.90;;;;;;;32.00;42.86;98390.16;67717;1280;1016364;-61
2023/07/29 07:12:30;;;;;;;10.90;3.00;;;;;;;32.10;43.39;98388.39;67672;1280;1018870;-61
2023/07/29 07:15:33;;;;;;;9.00;2.70;;;;;;;32.43;43.31;98389.02;67662;1280;1016832;-61
2023/07/29 07:18:35;;;;;;;8.80;3.00;;;;;;;32.59;42.75;98383.46;67714;1280;1016169;-61
2023/07/29 07:21:37;;;;;;;10.30;3.20;;;;;;;32.96;42.69;98383.16;67718;1280;1018518;-61
2023/07/29 07:24:40;;;;;;;9.10;3.00;;;;;;;33.11;42.64;98381.42;67669;1280;1016392;-61
2023/07/29 07:27:42;;;;;;;8.10;2.40;;;;;;;33.56;41.31;98381.34;67644;1280;1016397;-62
2023/07/29 07:30:45;;;;;;;4.90;2.40;;;;;;;33.42;39.74;98382.47;67658;1280;1016461;-61
2023/07/29 07:33:47;;;;;;;7.90;2.70;;;;;;;33.19;40.24;98383.43;67715;1280;1015879;-61
2023/07/29 07:36:49;;;;;;;9.50;2.80;;;;;;;33.21;40.24;98382.45;67721;1280;1016475;-61
2023/07/29 07:39:52;;;;;;;7.40;2.80;;;;;;;33.36;40.26;98385.06;67643;1280;1016480;-61
2023/07/29 07:42:54;;;;;;;5.80;2.60;;;;;;;33.13;39.49;98386.38;67672;1280;1016472;-61
2023/07/29 07:45:57;;;;;;;8.50;2.90;;;;;;;33.02;40.88;98380.90;67653;1280;1016211;-61
2023/07/29 07:48:59;;;;;;;6.00;2.70;;;;;;;33.14;39.72;98381.88;67708;1280;1015983;-61
2023/07/29 07:52:02;;;;;;;10.00;2.70;;;;;;;33.34;40.68;98385.02;67689;1280;1016017;-61
2023/07/29 07:55:04;;;;;;;7.10;2.70;;;;;;;33.59;40.29;98383.59;67633;1280;1016545;-61
2023/07/29 07:58:07;;;;;;;8.20;2.70;;;;;;;34.17;40.50;98378.66;67666;1280;1016476;-61
2023/07/29 08:01:09;;;;;;;10.10;3.10;;;;;;;34.25;38.55;98379.91;67667;1280;1016370;-61
2023/07/29 08:04:11;;;;;;;8.20;2.70;;;;;;;34.01;38.75;98378.83;67724;1280;1016111;-61
2023/07/29 08:07:14;;;;;;;7.50;2.50;;;;;;;34.28;39.04;98377.73;67733;1280;1016944;-62
2023/07/29 08:10:16;;;;;;;9.20;2.90;;;;;;;34.36;38.12;98374.52;67673;1280;1016504;-61
2023/07/29 08:13:19;;;;;;;7.70;2.90;;;;;;;34.50;38.73;98371.20;67661;1280;1016364;-61
2023/07/29 08:16:21;;;;;;;10.20;2.90;;;;;;;34.35;38.62;98377.55;67669;1280;1016346;-61
2023/07/29 08:19:23;;;;;;;7.40;2.50;;;;;;;34.22;38.51;98373.20;67710;1280;1016432;-61
2023/07/29 08:22:26;;;;;;;11.00;2.60;;;;;;;34.59;38.44;98366.48;67710;1280;1018796;-62
2023/07/29 08:25:28;;;;;;;7.70;2.90;;;;;;;34.72;38.05;98368.26;67705;1280;1016449;-62
2023/07/29 08:28:31;;;;;;;10.30;2.90;;;;;;;34.60;37.78;98367.20;67670;1280;1017445;-62
2023/07/29 08:31:34;;;;;;;8.00;2.80;;;;;;;34.95;37.99;98368.19;67661;1280;1016403;-62
2023/07/29 08:34:36;;;;;;;7.80;2.80;;;;;;;34.99;37.78;98360.64;67691;1280;1016498;-62
2023/07/29 08:37:38;;;;;;;8.00;2.70;;;;;;;35.23;37.41;98361.36;67701;1280;1016389;-62
2023/07/29 08:40:41;;;;;;;7.30;2.50;;;;;;;35.05;37.80;98358.38;67625;1280;1018052;-62
2023/07/29 08:43:43;;;;;;;9.60;2.80;;;;;;;35.58;37.26;98356.03;67654;1280;1016360;-61
2023/07/29 08:46:45;;;;;;;8.90;3.00;;;;;;;35.58;37.18;98353.00;67658;1280;1017152;-61
2023/07/29 08:49:48;;;;;;;29.60;8.90;;;;;;;35.87;37.60;98346.63;67698;1280;1016442;-62
2023/07/29 08:52:51;;;;;;;6.00;2.50;;;;;;;36.45;37.17;98341.02;67722;1280;1016400;-62
2023/07/29 08:55:55;;;;;;;7.70;2.70;;;;;;;36.35;35.21;98337.77;67641;1280;1016359;-62
2023/07/29 08:59:00;;;;;;;19.00;4.80;;;;;;;35.99;35.40;98336.94;67645;1280;1016488;-62
2023/07/29 09:02:02;;;;;;;69.90;25.20;;;;;;;35.59;36.09;98336.31;67701;1280;1016403;-62
2023/07/29 09:05:05;;;;;;;8.80;3.10;;;;;;;35.93;36.82;98335.79;67694;1280;1016476;-62
2023/07/29 09:08:07;;;;;;;6.40;2.60;;;;;;;36.17;35.61;98333.78;67647;1280;1016362;-62
2023/07/29 09:11:09;;;;;;;6.00;2.60;;;;;;;35.84;35.12;98336.98;67668;1256;1016501;-62
2023/07/29 09:14:12;;;;;;;23.60;6.60;;;;;;;36.13;35.36;98334.65;67644;1280;1016945;-62
2023/07/29 09:17:14;;;;;;;6.50;2.60;;;;;;;36.77;34.93;98333.02;67691;1280;1016428;-62
2023/07/29 09:20:17;;;;;;;4.70;2.30;;;;;;;36.75;34.22;98333.73;67720;1280;1016235;-62
2023/07/29 09:23:19;;;;;;;6.70;2.70;;;;;;;36.34;34.71;98332.05;67698;1280;1016486;-62
2023/07/29 09:26:22;;;;;;;15.60;3.80;;;;;;;36.22;35.37;98323.20;67666;1280;1016395;-62
2023/07/29 09:29:24;;;;;;;9.30;2.80;;;;;;;36.31;33.99;98331.59;67640;1280;1016407;-62
2023/07/29 09:32:27;;;;;;;9.10;2.30;;;;;;;35.56;33.85;98334.23;67713;1280;1019498;-62
2023/07/29 09:35:29;;;;;;;5.80;2.70;;;;;;;35.35;34.59;98330.67;67743;1280;1016385;-63
2023/07/29 09:38:32;;;;;;;9.70;2.70;;;;;;;35.74;34.66;98323.74;67692;1280;1016220;-62
2023/07/29 09:41:34;;;;;;;6.40;2.60;;;;;;;36.27;33.56;98322.48;67676;1280;1016150;-62
2023/07/29 09:44:37;;;;;;;7.20;2.80;;;;;;;36.45;33.38;98322.19;67669;1280;1016476;-62
2023/07/29 09:47:39;;;;;;;10.20;2.50;;;;;;;36.38;33.39;98320.02;67711;1280;1016798;-63
2023/07/29 09:50:41;;;;;;;7.50;2.90;;;;;;;36.77;32.98;98321.50;67721;1280;1016510;-63
2023/07/29 09:53:44;;;;;;;9.00;3.00;;;;;;;36.25;31.47;98320.77;67654;1280;1016532;-63
2023/07/29 09:56:46;;;;;;;5.50;2.40;;;;;;;36.56;32.41;98319.02;67676;1280;1016308;-63
2023/07/29 09:59:48;;;;;;;5.00;2.40;;;;;;;36.96;32.05;98310.52;67671;1280;1016197;-62
2023/07/29 10:02:51;;;;;;;6.90;2.40;;;;;;;37.06;31.40;98308.35;67659;1280;1016492;-63
2023/07/29 10:05:53;;;;;;;5.00;2.30;;;;;;;37.27;32.00;98303.50;67717;1280;1016464;-62
2023/07/29 10:08:56;;;;;;;6.40;2.80;;;;;;;37.97;32.08;98302.13;67700;1280;1016339;-63
2023/07/29 10:11:58;;;;;;;6.20;3.00;;;;;;;38.34;31.89;98304.02;67716;1280;1016329;-62
2023/07/29 10:15:01;;;;;;;7.30;2.60;;;;;;;38.29;30.36;98301.44;67645;1280;1018412;-62
2023/07/29 10:18:03;;;;;;;5.70;2.60;;;;;;;38.35;31.01;98301.67;67739;1280;1016397;-63
2023/07/29 10:21:06;;;;;;;6.80;2.50;;;;;;;38.35;30.39;98301.28;67746;1280;1016478;-62
2023/07/29 10:24:08;;;;;;;5.80;2.50;;;;;;;38.30;29.88;98303.68;67668;1280;1016093;-63
2023/07/29 10:27:11;;;;;;;8.10;2.50;;;;;;;38.18;30.82;98302.85;67685;1280;1017322;-62
2023/07/29 10:30:14;;;;;;;6.40;2.50;;;;;;;38.71;31.77;98296.58;67697;1280;1016504;-63
2023/07/29 10:33:16;;;;;;;6.10;2.60;;;;;;;39.62;30.18;98293.08;67645;1280;1016423;-62
2023/07/29 10:36:19;;;;;;;7.70;2.80;;;;;;;39.19;28.88;98297.80;67707;1280;1016486;-63
2023/07/29 10:39:21;;;;;;;10.20;3.10;;;;;;;38.41;29.99;98295.80;67631;1280;1016460;-62
2023/07/29 10:42:23;;;;;;;10.20;3.00;;;;;;;38.44;29.58;98294.93;67702;1280;1018911;-62
2023/07/29 10:45:26;;;;;;;6.10;2.50;;;;;;;37.70;29.65;98292.63;67727;1280;1016481;-63
2023/07/29 10:48:28;;;;;;;9.40;3.00;;;;;;;37.43;29.93;98291.62;67713;1280;1016415;-63
2023/07/29 10:51:32;;;;;;;6.20;2.70;;;;;;;37.98;30.84;98288.55;67709;1280;1017390;-63
2023/07/29 10:54:34;;;;;;;5.40;2.60;;;;;;;38.24;29.80;98285.21;67664;1280;1016083;-63
2023/07/29 10:57:37;;;;;;;8.30;2.70;;;;;;;38.73;29.27;98283.85;67688;1280;1018180;-63
2023/07/29 11:00:39;;;;;;;6.40;2.60;;;;;;;38.53;29.66;98283.91;67692;1280;1016419;-63
2023/07/29 11:03:41;;;;;;;5.00;2.70;;;;;;;38.91;30.06;98274.81;67686;1280;1016884;-63
2023/07/29 11:06:44;;;;;;;8.70;2.90;;;;;;;39.44;29.67;98277.83;67739;1280;1016415;-63
2023/07/29 11:09:46;;;;;;;7.30;2.70;;;;;;;39.84;28.95;98277.16;67735;1281;1016390;-64
2023/07/29 11:12:50;;;;;;;7.70;2.90;;;;;;;39.91;29.06;98274.36;67670;1280;1019239;-64
2023/07/29 11:15:53;;;;;;;6.30;2.60;;;;;;;40.45;28.95;98270.57;67677;1280;1016113;-64
2023/07/29 11:18:55;;;;;;;5.30;2.70;;;;;;;40.88;28.16;98265.90;67645;1280;1015713;-64
2023/07/29 11:21:58;;;;;;;6.90;2.60;;;;;;;41.18;28.32;98261.59;67612;1280;1016468;-64
2023/07/29 11:25:00;;;;;;;5.80;2.70;;;;;;;41.22;26.64;98258.09;67635;1280;1016263;-64
2023/07/29 11:28:02;;;;;;;5.80;2.30;;;;;;;40.89;27.29;98256.48;67626;1280;1016109;-64
2023/07/29 11:31:05;;;;;;;13.20;3.00;;;;;;;40.26;25.68;98258.45;67600;1280;1016617;-63
2023/07/29 11:34:08;;;;;;;7.40;2.70;;;;;;;39.41;26.45;98254.88;67646;1280;1016425;-63
2023/07/29 11:37:10;;;;;;;8.20;2.80;;;;;;;39.17;26.82;98247.42;67666;1280;1016494;-64
2023/07/29 11:40:13;;;;;;;8.30;2.80;;;;;;;39.75;26.84;98248.44;67614;1280;1016881;-63
2023/07/29 11:43:15;;;;;;;7.30;2.60;;;;;;;40.25;27.68;98241.02;67631;1281;1016314;-64
2023/07/29 11:46:18;;;;;;;7.80;2.70;;;;;;;40.92;27.00;98237.60;67673;1280;1016474;-64
2023/07/29 11:49:20;;;;;;;6.90;2.70;;;;;;;41.15;25.97;98233.98;67687;1280;1016274;-64
2023/07/29 11:52:22;;;;;;;5.90;2.70;;;;;;;41.04;25.39;98232.46;67652;1280;1018618;-64
2023/07/29 11:55:25;;;;;;;6.60;2.70;;;;;;;40.69;25.76;98226.98;67668;1280;1017696;-64
2023/07/29 11:58:27;;;;;;;6.70;2.70;;;;;;;40.55;25.23;98226.11;67626;1280;1016279;-64
2023/07/29 12:01:29;;;;;;;9.50;2.70;;;;;;;40.46;25.60;98221.63;67657;1280;1016515;-64
2023/07/29 12:04:32;;;;;;;5.60;2.60;;;;;;;40.51;26.21;98216.75;67621;1280;1016484;-64
2023/07/29 12:07:34;;;;;;;8.70;2.80;;;;;;;40.86;26.09;98217.74;67688;1280;1016495;-64
2023/07/29 12:10:37;;;;;;;6.20;2.60;;;;;;;40.84;26.69;98214.69;67691;1281;1016176;-64
2023/07/29 12:13:39;;;;;;;7.10;2.70;;;;;;;40.68;25.31;98213.21;67654;1280;1016534;-64
2023/07/29 12:16:42;;;;;;;5.90;2.60;;;;;;;40.35;26.29;98206.20;67625;1280;1016651;-64
2023/07/29 12:19:44;;;;;;;6.80;2.90;;;;;;;40.51;27.02;98207.58;67678;1280;1016257;-64
2023/07/29 12:22:46;;;;;;;6.90;2.70;;;;;;;40.68;26.70;98213.09;67672;1280;1016438;-64
2023/07/29 12:25:49;;;;;;;9.10;2.70;;;;;;;40.77;26.78;98208.00;67705;1280;1016792;-65
2023/07/29 12:28:51;;;;;;;5.90;2.50;;;;;;;40.67;26.56;98209.65;67706;1280;1017170;-64
2023/07/29 12:31:53;;;;;;;8.20;2.90;;;;;;;40.32;26.76;98207.87;67656;1280;1016485;-64
2023/07/29 12:34:56;;;;;;;6.60;2.80;;;;;;;40.53;27.55;98206.51;67657;1280;1018755;-65
2023/07/29 12:37:58;;;;;;;9.00;3.10;;;;;;;40.60;26.51;98205.05;67654;1280;1020337;-64
2023/07/29 12:41:01;;;;;;;10.60;2.90;;;;;;;40.19;26.85;98199.77;67679;1281;1016378;-65
2023/07/29 12:44:03;;;;;;;6.80;2.70;;;;;;;39.67;26.61;98197.15;67687;1280;1016726;-64
2023/07/29 12:47:06;;;;;;;7.60;2.80;;;;;;;39.40;27.30;98200.37;67656;1281;1018666;-64
2023/07/29 12:50:08;;;;;;;8.40;2.80;;;;;;;39.36;27.44;98193.73;67629;1280;1019069;-64
2023/07/29 12:53:11;;;;;;;9.90;3.10;;;;;;;39.79;27.56;98190.20;67644;1281;1016449;-64
2023/07/29 12:56:13;;;;;;;8.00;2.80;;;;;;;40.27;27.35;98182.90;67697;1281;1016498;-65
2023/07/29 12:59:16;;;;;;;6.40;2.80;;;;;;;40.38;27.13;98178.58;67700;1280;1019516;-64
2023/07/29 13:02:18;;;;;;;9.60;2.90;;;;;;;40.84;27.26;98178.54;67654;1280;1016403;-64
2023/07/29 13:05:20;;;;;;;8.00;2.80;;;;;;;41.13;26.56;98183.17;67679;1281;1019534;-64
2023/07/29 13:08:23;;;;;;;5.90;2.50;;;;;;;41.39;26.41;98175.76;67617;1280;1016467;-65
2023/07/29 13:11:26;;;;;;;4.50;2.70;;;;;;;41.42;26.12;98169.41;67658;1280;1016956;-64
2023/07/29 13:14:28;;;;;;;8.40;2.90;;;;;;;41.49;26.79;98170.07;67671;1280;1018239;-64
2023/07/29 13:17:31;;;;;;;6.80;2.80;;;;;;;41.88;25.83;98169.63;67663;1280;1016439;-64
2023/07/29 13:20:34;;;;;;;7.30;2.80;;;;;;;42.13;26.03;98164.61;67703;1281;1007573;-65
2023/07/29 13:23:37;;;;;;;4.20;2.20;;;;;;;42.27;25.41;98166.02;67697;1281;1007787;-64
2023/07/29 13:26:39;;;;;;;7.30;2.90;;;;;;;41.67;24.71;98159.53;67681;1280;1016462;-65
2023/07/29 13:29:43;;;;;;;7.80;2.80;;;;;;;41.54;25.82;98161.91;67706;1280;1018712;-64
2023/07/29 13:32:45;;;;;;;8.90;2.80;;;;;;;41.82;25.78;98155.91;67678;1280;1016173;-64
2023/07/29 13:35:48;;;;;;;6.10;2.50;;;;;;;41.85;25.40;98153.15;67686;1280;1015915;-64
2023/07/29 13:38:50;;;;;;;7.60;2.40;;;;;;;41.71;25.28;98158.83;67674;1280;1016393;-64
2023/07/29 13:41:52;;;;;;;7.50;2.80;;;;;;;41.36;25.40;98151.79;67633;1280;1016239;-64
2023/07/29 13:44:55;;;;;;;6.10;2.60;;;;;;;41.73;25.63;98151.02;67640;1280;1017962;-64
2023/07/29 13:47:58;;;;;;;7.70;2.70;;;;;;;41.76;25.27;98146.38;67679;1280;1016711;-64
2023/07/29 13:51:00;;;;;;;8.70;2.80;;;;;;;42.02;25.49;98145.08;67729;1280;1007671;-64
2023/07/29 13:54:02;;;;;;;7.80;2.60;;;;;;;42.51;25.52;98138.27;67691;1280;1007487;-64
2023/07/29 13:57:06;;;;;;;8.40;2.70;;;;;;;42.60;24.73;98133.43;67688;1280;1007337;-64
2023/07/29 14:00:09;;;;;;;8.40;2.90;;;;;;;42.82;25.23;98129.91;67647;1280;1008298;-64
2023/07/29 14:03:11;;;;;;;6.30;2.80;;;;;;;43.09;25.06;98131.17;67733;1280;1007418;-63